createdAt,value
2019-05-21T00:00:39.442Z,24.45
2019-05-21T00:06:29.612Z,25.27
2019-05-21T00:09:20.517Z,25.25
2019-05-21T00:11:51.794Z,24.47
2019-05-21T00:14:27.830Z,24.75
2019-05-21T00:17:02.375Z,26.25
2019-05-21T00:19:44.116Z,27.22
2019-05-21T00:22:23.486Z,26.80
2019-05-21T00:27:33.999Z,24.37
2019-05-21T00:30:56.199Z,25.27
2019-05-21T00:34:01.945Z,25.77
2019-05-21T00:37:31.502Z,24.70
2019-05-21T00:40:43.004Z,25.20
2019-05-21T00:43:15.584Z,26.75
2019-05-21T00:46:03.407Z,26.93
2019-05-21T00:48:35.681Z,24.87
2019-05-21T00:51:12.287Z,26.77
2019-05-21T00:53:43.117Z,27.90
2019-05-21T00:56:17.630Z,27.25
2019-05-21T01:03:26.925Z,26.50
2019-05-21T01:06:06.650Z,25.52
2019-05-21T01:08:42.019Z,25.92
2019-05-21T01:11:19.470Z,27.13
2019-05-21T01:14:37.411Z,26.52
2019-05-21T01:17:08.836Z,26.60
2019-05-21T01:19:45.577Z,25.85
2019-05-21T01:22:22.767Z,27.07
2019-05-21T01:25:22.996Z,26.10
2019-05-21T01:31:43.883Z,27.15
2019-05-21T01:34:28.005Z,25.85
2019-05-21T01:37:11.296Z,24.63
2019-05-21T01:47:44.682Z,28.20
2019-05-21T01:53:50.897Z,25.60
2019-05-21T02:00:02.315Z,27.27
2019-05-21T02:03:11.652Z,27.45
2019-05-21T02:06:25.110Z,27.93
2019-05-21T02:16:02.434Z,27.58
2019-05-21T02:22:24.126Z,26.27
2019-05-21T02:28:26.313Z,28.57
2019-05-21T02:31:44.797Z,28.73
2019-05-21T03:27:06.428Z,27.17
2019-05-21T05:03:05.261Z,35.45
2019-05-21T05:19:13.890Z,36.15
2019-05-21T05:25:42.890Z,36.53
2019-05-21T05:28:46.376Z,36.13
2019-05-21T05:31:20.503Z,35.63
2019-05-21T05:33:50.548Z,34.03
2019-05-21T05:36:22.447Z,34.27
2019-05-21T05:38:58.162Z,33.67
2019-05-21T05:41:39.805Z,36.13
2019-05-21T05:44:22.345Z,36.68
2019-05-21T05:46:57.325Z,36.73
2019-05-21T05:49:37.204Z,37.40
2019-05-21T05:52:10.311Z,38.15
2019-05-21T05:54:48.348Z,37.58
2019-05-21T05:57:23.068Z,38.60
2019-05-21T06:00:00.493Z,36.98
2019-05-21T06:02:30.460Z,38.67
2019-05-21T06:05:07.121Z,37.87
2019-05-21T06:07:37.976Z,37.70
2019-05-21T06:12:41.602Z,39.23
2019-05-21T06:15:26.042Z,39.80
2019-05-21T06:18:06.433Z,40.17
2019-05-21T06:20:44.727Z,37.48
2019-05-21T06:23:13.471Z,38.08
2019-05-21T06:28:31.356Z,38.83
2019-05-21T06:31:01.035Z,39.97
2019-05-21T06:33:30.764Z,41.42
2019-05-21T06:36:02.340Z,39.85
2019-05-21T06:38:35.520Z,41.37
2019-05-21T06:41:05.191Z,41.77
2019-05-21T06:43:34.916Z,41.05
2019-05-21T06:46:04.601Z,40.20
2019-05-21T06:48:34.325Z,39.30
2019-05-21T06:51:03.869Z,41.45
2019-05-21T06:53:33.408Z,38.83
2019-05-21T06:56:07.191Z,39.58
2019-05-21T06:58:34.477Z,39.25
2019-05-21T07:01:04.313Z,39.95
2019-05-21T07:03:33.883Z,39.80
2019-05-21T07:06:03.856Z,39.13
2019-05-21T07:08:35.235Z,40.70
2019-05-21T07:11:05.565Z,39.70
2019-05-21T07:13:35.142Z,41.45
2019-05-21T07:16:04.940Z,40.15
2019-05-21T07:18:34.533Z,39.65
2019-05-21T07:21:04.069Z,40.50
2019-05-21T07:23:33.956Z,39.03
2019-05-21T07:26:03.552Z,38.88
2019-05-21T07:28:34.217Z,38.95
2019-05-21T07:31:03.812Z,40.50
2019-05-21T07:33:33.621Z,40.38
2019-05-21T07:36:04.406Z,40.15
2019-05-21T07:41:05.517Z,40.08
2019-05-21T07:43:35.362Z,39.92
2019-05-21T07:46:05.050Z,39.97
2019-05-21T07:48:34.693Z,38.88
2019-05-21T07:51:04.452Z,40.15
2019-05-21T07:53:34.181Z,40.38
2019-05-21T07:56:03.821Z,39.48
2019-05-21T07:58:33.625Z,38.40
2019-05-21T08:01:04.362Z,37.53
2019-05-21T08:03:34.268Z,35.95
2019-05-21T08:06:05.194Z,32.83
2019-05-21T08:08:35.283Z,32.83
2019-05-21T08:11:04.920Z,32.03
2019-05-21T08:13:35.352Z,32.00
2019-05-21T08:16:05.939Z,32.65
2019-05-21T08:18:45.207Z,29.07
2019-05-21T08:21:16.135Z,31.02
2019-05-21T08:23:48.893Z,30.05
2019-05-21T08:26:23.634Z,26.65
2019-05-21T08:28:59.307Z,27.10
2019-05-21T08:31:33.350Z,26.42
2019-05-21T08:36:53.353Z,27.55
2019-05-21T08:39:28.903Z,24.60
2019-05-21T08:41:57.771Z,24.65
2019-05-21T08:44:30.063Z,20.97
2019-05-21T08:47:04.501Z,22.82
2019-05-21T08:49:39.495Z,21.30
2019-05-21T08:52:18.727Z,17.95
2019-05-21T08:54:50.079Z,17.30
2019-05-21T08:57:19.920Z,16.35
2019-05-21T08:59:49.637Z,13.53
2019-05-21T09:02:19.834Z,13.30
2019-05-21T09:04:49.422Z,14.28
2019-05-21T09:07:19.113Z,16.50
2019-05-21T09:09:51.404Z,12.18
2019-05-21T09:12:20.267Z,8.83
2019-05-21T09:14:49.886Z,9.10
2019-05-21T09:17:19.698Z,9.37
2019-05-21T09:19:49.240Z,9.10
2019-05-21T09:22:18.734Z,8.03
2019-05-21T09:24:48.254Z,8.60
2019-05-21T09:27:17.830Z,9.05
2019-05-21T09:29:47.360Z,9.28
2019-05-21T09:32:16.872Z,9.58
2019-05-21T09:34:49.049Z,9.93
2019-05-21T09:37:20.016Z,10.08
2019-05-21T09:39:49.368Z,11.10
2019-05-21T09:42:20.100Z,11.38
2019-05-21T09:44:49.605Z,9.80
2019-05-21T09:47:19.111Z,9.68
2019-05-21T09:49:48.694Z,10.48
2019-05-21T09:52:18.287Z,10.93
2019-05-21T09:54:47.870Z,9.35
2019-05-21T09:57:19.152Z,9.48
2019-05-21T09:59:51.558Z,7.97
2019-05-21T10:02:23.964Z,8.83
2019-05-21T10:04:56.909Z,9.28
2019-05-21T10:07:38.927Z,8.70
2019-05-21T10:09:58.832Z,8.93
2019-05-21T10:12:28.420Z,10.23
2019-05-21T10:14:58.090Z,9.90
2019-05-21T10:17:28.004Z,9.87
2019-05-21T10:19:59.074Z,9.03
2019-05-21T10:22:29.159Z,9.28
2019-05-21T10:24:58.736Z,9.53
2019-05-21T10:27:29.222Z,8.95
2019-05-21T10:29:58.812Z,9.68
2019-05-21T10:32:28.309Z,9.53
2019-05-21T10:34:58.236Z,9.60
2019-05-21T10:37:29.306Z,9.70
2019-05-21T10:39:58.866Z,9.28
2019-05-21T10:42:29.555Z,8.85
2019-05-21T10:47:28.060Z,8.23
2019-05-21T10:49:58.988Z,9.38
2019-05-21T10:52:28.541Z,9.95
2019-05-21T10:54:58.881Z,9.33
2019-05-21T10:57:28.498Z,10.10
2019-05-21T10:59:58.399Z,9.98
2019-05-21T11:02:41.997Z,9.67
2019-05-21T11:05:28.686Z,8.50
2019-05-21T11:07:56.759Z,10.78
2019-05-21T11:10:26.574Z,9.73
2019-05-21T11:12:56.387Z,9.50
2019-05-21T11:15:25.996Z,8.57
2019-05-21T11:18:09.919Z,9.33
2019-05-21T11:20:27.142Z,8.90
2019-05-21T11:22:58.451Z,8.30
2019-05-21T11:25:29.242Z,8.50
2019-05-21T11:27:59.999Z,7.65
2019-05-21T11:30:29.510Z,6.60
2019-05-21T11:32:59.089Z,6.10
2019-05-21T11:35:28.660Z,5.60
2019-05-21T11:37:58.891Z,4.90
2019-05-21T11:40:28.584Z,4.72
2019-05-21T11:42:59.229Z,4.87
2019-05-21T11:47:59.346Z,4.72
2019-05-21T11:50:29.469Z,5.00
2019-05-21T11:53:00.051Z,4.72
2019-05-21T11:57:58.326Z,4.50
2019-05-21T12:00:28.893Z,4.40
2019-05-21T12:02:58.562Z,4.50
2019-05-21T12:05:31.349Z,3.83
2019-05-21T12:07:59.990Z,3.67
2019-05-21T12:10:29.569Z,4.25
2019-05-21T12:12:59.336Z,4.00
2019-05-21T12:15:28.861Z,4.43
2019-05-21T12:17:59.277Z,4.58
2019-05-21T12:20:36.915Z,4.20
2019-05-21T12:23:00.454Z,4.80
2019-05-21T12:25:29.960Z,4.40
2019-05-21T12:27:59.789Z,3.80
2019-05-21T12:30:29.615Z,4.57
2019-05-21T12:32:59.276Z,4.00
2019-05-21T12:35:28.995Z,3.90
2019-05-21T12:37:58.902Z,4.00
2019-05-21T12:40:28.426Z,3.40
2019-05-21T12:42:58.451Z,4.67
2019-05-21T12:45:28.326Z,4.20
2019-05-21T12:47:58.989Z,4.30
2019-05-21T12:50:28.757Z,3.80
2019-05-21T12:52:58.471Z,4.23
2019-05-21T12:55:28.072Z,4.42
2019-05-21T12:57:59.088Z,4.95
2019-05-21T13:00:33.145Z,5.12
2019-05-21T13:03:02.675Z,5.92
2019-05-21T13:05:32.471Z,4.83
2019-05-21T13:08:02.073Z,5.55
2019-05-21T13:10:32.038Z,6.05
2019-05-21T13:13:01.882Z,5.72
2019-05-21T13:15:31.558Z,5.70
2019-05-21T13:18:01.788Z,4.40
2019-05-21T13:20:31.285Z,4.45
2019-05-21T13:23:00.796Z,4.97
2019-05-21T13:25:30.394Z,4.83
2019-05-21T13:28:00.898Z,5.80
2019-05-21T13:30:30.564Z,6.08
2019-05-21T13:33:00.066Z,6.05
2019-05-21T13:35:29.945Z,6.42
2019-05-21T13:37:59.766Z,5.90
2019-05-21T13:40:30.612Z,5.77
2019-05-21T13:43:00.406Z,6.20
2019-05-21T13:45:29.984Z,6.62
2019-05-21T13:47:59.539Z,5.95
2019-05-21T13:50:29.365Z,6.08
2019-05-21T13:52:59.250Z,6.10
2019-05-21T13:55:28.933Z,5.10
2019-05-21T13:57:59.080Z,4.10
2019-05-21T14:00:33.149Z,4.30
2019-05-21T14:03:03.772Z,3.65
2019-05-21T14:08:03.382Z,3.87
2019-05-21T14:10:33.530Z,3.22
2019-05-21T14:13:03.427Z,4.15
2019-05-21T14:15:33.037Z,3.80
2019-05-21T14:18:02.677Z,3.50
2019-05-21T14:20:33.332Z,2.90
2019-05-21T14:23:03.278Z,3.00
2019-05-21T14:25:33.546Z,2.83
2019-05-21T14:28:03.540Z,2.60
2019-05-21T14:30:33.474Z,2.77
2019-05-21T14:33:02.984Z,2.40
2019-05-21T14:35:32.796Z,2.70
2019-05-21T14:38:02.421Z,2.77
2019-05-21T14:40:33.353Z,2.77
2019-05-21T14:43:02.961Z,3.45
2019-05-21T14:45:34.181Z,2.60
2019-05-21T14:48:05.605Z,2.70
2019-05-21T14:53:03.969Z,2.40
2019-05-21T14:55:33.716Z,2.47
2019-05-21T14:58:03.238Z,3.30
2019-05-21T15:00:39.589Z,4.40
2019-05-21T15:03:24.154Z,3.70
2019-05-21T15:05:41.578Z,3.65
2019-05-21T15:10:48.616Z,3.70
2019-05-21T15:13:10.894Z,4.75
2019-05-21T15:15:40.442Z,4.50
2019-05-21T15:18:10.047Z,4.50
2019-05-21T15:20:44.345Z,4.10
2019-05-21T15:23:13.993Z,4.35
2019-05-21T15:25:43.765Z,3.75
2019-05-21T15:28:13.367Z,3.73
2019-05-21T15:30:43.192Z,3.55
2019-05-21T15:33:12.772Z,4.93
2019-05-21T15:35:42.626Z,4.05
2019-05-21T15:38:12.316Z,4.30
2019-05-21T15:40:42.052Z,3.87
2019-05-21T15:43:12.875Z,4.95
2019-05-21T15:45:42.377Z,3.83
2019-05-21T15:48:13.149Z,4.67
2019-05-21T15:53:11.661Z,4.40
2019-05-21T15:55:41.158Z,5.30
2019-05-21T15:58:10.684Z,4.53
2019-05-21T16:00:40.957Z,4.33
2019-05-21T16:03:12.141Z,5.15
2019-05-21T16:05:41.713Z,5.20
2019-05-21T16:08:11.338Z,4.78
2019-05-21T16:10:41.047Z,4.55
2019-05-21T16:13:10.568Z,4.37
2019-05-21T16:15:40.140Z,4.67
2019-05-21T16:18:10.799Z,5.05
2019-05-21T16:20:42.490Z,6.22
2019-05-21T16:23:11.537Z,5.67
2019-05-21T16:25:41.040Z,6.62
2019-05-21T16:28:10.621Z,6.60
2019-05-21T16:30:40.545Z,5.58
2019-05-21T16:33:12.523Z,5.10
2019-05-21T16:35:42.293Z,5.58
2019-05-21T16:38:11.805Z,5.35
2019-05-21T16:40:41.326Z,5.35
2019-05-21T16:43:11.250Z,5.25
2019-05-21T16:45:40.861Z,5.33
2019-05-21T16:48:10.702Z,5.40
2019-05-21T16:50:40.207Z,5.60
2019-05-21T16:53:09.694Z,5.97
2019-05-21T16:55:39.280Z,5.62
2019-05-21T16:58:09.933Z,5.50
2019-05-21T17:00:39.677Z,5.37
2019-05-21T17:03:09.352Z,5.40
2019-05-21T17:05:39.227Z,4.97
2019-05-21T17:08:08.789Z,5.23
2019-05-21T17:10:38.360Z,5.30
2019-05-21T17:13:08.133Z,5.87
2019-05-21T17:15:37.737Z,5.40
2019-05-21T17:18:07.243Z,4.47
2019-05-21T17:20:36.760Z,5.28
2019-05-21T17:23:06.250Z,4.40
2019-05-21T17:25:36.908Z,4.10
2019-05-21T17:28:06.468Z,3.67
2019-05-21T17:30:36.409Z,4.62
2019-05-21T17:33:08.728Z,4.53
2019-05-21T17:35:38.308Z,4.08
2019-05-21T17:38:09.272Z,4.00
2019-05-21T17:40:38.870Z,4.22
2019-05-21T17:43:08.449Z,3.87
2019-05-21T17:45:38.023Z,4.70
2019-05-21T17:48:07.849Z,4.20
2019-05-21T17:50:37.358Z,4.10
2019-05-21T17:53:11.844Z,3.85
2019-05-21T17:55:41.741Z,5.70
2019-05-21T17:58:13.670Z,5.08
2019-05-21T18:00:56.541Z,4.70
2019-05-21T18:03:26.576Z,4.78
2019-05-21T18:05:56.408Z,4.45
2019-05-21T18:08:26.002Z,5.37
2019-05-21T18:10:56.311Z,4.60
2019-05-21T18:13:29.343Z,4.90
2019-05-21T18:15:59.098Z,4.85
2019-05-21T18:18:28.856Z,4.72
2019-05-21T18:20:59.936Z,5.28
2019-05-21T18:23:29.813Z,5.20
2019-05-21T18:25:59.603Z,6.20
2019-05-21T18:28:35.848Z,7.15
2019-05-21T18:31:30.405Z,5.10
2019-05-21T18:34:00.032Z,5.58
2019-05-21T18:36:29.629Z,5.40
2019-05-21T18:39:00.043Z,5.85
2019-05-21T18:41:36.479Z,5.70
2019-05-21T18:44:28.589Z,5.55
2019-05-21T18:46:58.244Z,5.55
2019-05-21T18:53:17.815Z,6.05
2019-05-21T18:55:47.513Z,6.15
2019-05-21T18:58:17.783Z,7.15
2019-05-21T19:04:42.293Z,7.37
2019-05-21T19:07:12.728Z,7.80
2019-05-21T19:09:42.237Z,8.00
2019-05-21T19:12:11.956Z,8.75
2019-05-21T19:14:44.977Z,9.40
2019-05-21T19:17:34.864Z,8.50
2019-05-21T19:19:56.314Z,8.90
2019-05-21T19:25:48.557Z,9.40
2019-05-21T19:32:05.911Z,9.85
2019-05-21T19:34:35.685Z,10.00
2019-05-21T19:37:05.791Z,9.17
2019-05-21T19:39:36.338Z,10.43
2019-05-21T19:42:05.965Z,9.63
2019-05-21T19:47:52.669Z,9.43
2019-05-21T19:50:22.351Z,10.25
2019-05-21T19:55:59.243Z,11.48
2019-05-21T19:58:28.988Z,10.30
2019-05-21T20:23:56.113Z,11.22
2019-05-21T20:40:02.125Z,14.30
